ADDS METAR Data INFO
IDs: Format: Raw Decoded Include TAF

Data at: 1133 UTC 29 May 2017

KACT 291051Z 00000KT 10SM OVC019 22/21 A2998 RMK AO2 SLP144 T02170206
KACT 291007Z AUTO 00000KT 10SM FEW009 OVC016 21/21 A2998 RMK AO2 T02110211
KACT 290951Z AUTO 00000KT 10SM OVC012 21/21 A2998 RMK AO2 SLP145 T02110211
KACT 290908Z AUTO 16005KT 8SM BKN010 21/21 A2996 RMK AO2 T02060206
KACT 290851Z AUTO 11003KT 9SM FEW010 21/20 A2996 RMK AO2 SLP137 T02060200 56008
KACT 290751Z AUTO 33005KT 10SM CLR 21/21 A2996 RMK AO2 SLP137 T02110206
KACT 290651Z AUTO 00000KT 10SM CLR 21/21 A2998 RMK AO2 SLP143 T02110206
KACT 290551Z AUTO 02010KT 9SM CLR 22/21 A2998 RMK AO2 SLP145 60033 T02170211 10250 20211 403060211 58010
KACT 290451Z 03005KT 8SM CLR 22/21 A2999 RMK AO2 TSE0353 SLP150 T02170211
KACT 290359Z 05006KT 10SM FEW090 FEW110 22/21 A3000 RMK AO2 LTG DSNT NE TSE53 T02170211
KACT 290351Z 00000KT 10SM TS SCT100 22/21 A3001 RMK AO2 LTG DSNT NE RAE47 TSE0257B00 SLP154 P0002 T02170211
KACT 290251Z 32008KT 9SM -TSRA FEW046 SCT050 BKN065 22/21 A3001 RMK AO2 LTG DSNT ALQDS TSE20B21 SLP156 P0031 60031 T02170211 53045
KACT 290233Z 18006KT 3SM TSRA BR FEW019 BKN042 OVC060 22/21 A2999 RMK AO2 LTG DSNT ALQDS TSE20B21 P0027 T02170206
KACT 290229Z 19008KT 1 3/4SM +TSRA BR SCT019 BKN032 OVC060 22/21 A3000 RMK AO2 LTG DSNT ALQDS TSE20B21 P0026 T02170206
KACT 290221Z 14011KT 2 1/2SM +TSRA BR FEW017 BKN022 OVC039 22/21 A3000 RMK AO2 LTG DSNT ALQDS TSE20B21 P0009 T02170206
KACT 290210Z 21015G22KT 6SM -TSRA BR SCT018 BKN025 OVC037 22/21 A3001 RMK AO2 LTG DSNT ALQDS P0002 T02220211
KACT 290151Z 16010KT 10SM -TSRA BKN037 OVC055 23/21 A2998 RMK AO2 LTG DSNT ALQDS RAB36 TSB35E50B51 SLP145 P0000 T02330211
KACT 290135Z 09004KT 10SM TS BKN036 BKN065 24/21 A2998 RMK AO2 LTG DSNT SE-W TSB35 T02390206
KACT 290118Z 36007KT 10SM VCTS SCT030 BKN065 24/21 A2994 RMK AO2 LTG DSNT SE-W PRESRR T02390206
KACT 290051Z 36012KT 10SM VCTS FEW015 OVC024 24/21 A2988 RMK AO2 LTG DSNT SE-SW TSB01E05E43 SLP110 T02390206
KACT 290049Z 01012KT 10SM VCTS SCT015 OVC024 24/21 A2988 RMK AO2 LTG DSNT SE-W TSB01E05E43 PRESFR
KACT 290012Z 36011G19KT 10SM TS OVC017 25/21 A2989 RMK AO2 LTG DSNT SE-SW TSB01E05 T02500211
KACT 282351Z 01011KT 10SM OVC017 25/22 A2990 RMK AO2 LTG DSNT SE AND S SLP118 T02500217 10306 20250 55002
KACT 282251Z 35012KT 10SM SCT015 SCT034 26/22 A2988 RMK AO2 LTG DSNT SE AND S SLP111 T02610217
KACT 282207Z 35013KT 10SM BKN015 OVC035 26/22 A2989 RMK AO2 LTG DSNT E-S T02610217
KACT 282151Z 01011KT 10SM FEW015 BKN036 BKN043 27/22 A2991 RMK AO2 LTG DSNT E-S TSE06 SLP121 T02670222
KACT 282127Z 01014KT 10SM FEW015 BKN038 28/22 A2990 RMK AO2 LTG DSNT E-S TSE06 T02780222
KACT 282112Z 36015G19KT 10SM VCTS SCT038 28/22 A2992 RMK AO2 LTG DSNT E-S TSE06 T02780222
KACT 282051Z 35013KT 10SM TS FEW038 SCT047 28/22 A2992 RMK AO2 LTG DSNT SE TSB51 SLP123 T02830222 50004
KACT 282047Z 34015KT 10SM VCTS SCT038 28/22 A2992 RMK AO2 LTG DSNT SE
KACT 281951Z 34014KT 10SM BKN032 OVC040 27/23 A2991 RMK AO2 SLP123 T02670228
KACT 281851Z VRB04KT 10SM OVC033 31/23 A2991 RMK AO2 SLP119 T03060233
KACT 281822Z 18006KT 10SM OVC030 29/23 A2991 RMK AO2 T02940233
KACT 281751Z 16004KT 9SM OVC024 28/24 A2992 RMK AO2 SLP123 T02830239 10289 20233 51005
KACT 281651Z 14007KT 10SM OVC025 28/23 A2992 RMK AO2 SLP122 T02830233
KACT 281551Z 14008KT 10SM OVC025 28/23 A2991 RMK AO2 SLP120 T02830233
KACT 281500Z 16010KT 10SM BKN023 28/23 A2990 RMK AO2 T02830228
KACT 281451Z 14011KT 10SM SCT024 SCT033 29/23 A2991 RMK AO2 SLP118 T02890233 53012
KACT 281351Z 16011KT 10SM CLR 27/23 A2989 RMK AO2 SLP112 T02670228
KACT 281251Z 17009KT 9SM FEW080 25/23 A2988 RMK AO2 SLP109 T02500228
KACT 281151Z 15004KT 7SM FEW013 SCT022 BKN080 23/22 A2987 RMK AO2 SLP107 T02280222 10261 20228 53027
KACT 281131Z 00000KT 9SM FEW013 BKN022 23/22 A2988 RMK AO2 T02330222
KACT 281051Z AUTO 18011KT 9SM CLR 23/22 A2981 RMK AO2 SLP085 T02330222
KACT 280951Z AUTO 17012KT 10SM CLR 24/22 A2980 RMK AO2 SLP082 T02390222
KACT 280851Z AUTO 18012KT 10SM CLR 24/22 A2979 RMK AO2 SLP079 T02440222 55002
KACT 280751Z AUTO 17007KT 10SM CLR 24/22 A2979 RMK AO2 SLP079 T02440222
KACT 280651Z AUTO 18011KT 10SM CLR 26/22 A2978 RMK AO2 SLP077 T02560222
KACT 280551Z AUTO 19015G22KT 10SM CLR 26/22 A2980 RMK AO2 PK WND 19027/0504 SLP082 T02610222 10322 20261 403330250 53002
KACT 280451Z AUTO 19017G25KT 10SM CLR 27/22 A2979 RMK AO2 SLP079 T02720222
KACT 280351Z 18018G24KT 10SM CLR 28/23 A2980 RMK AO2 SLP081 T02780228
KACT 280251Z 17014G21KT 9SM CLR 29/23 A2979 RMK AO2 SLP080 T02890233 53004
KACT 280151Z 17013KT 9SM CLR 30/23 A2979 RMK AO2 SLP078 T03000233
KACT 280051Z 17011KT 7SM SCT049 31/23 A2978 RMK AO2 SLP075 T03110233
KACT 272351Z 18009KT 6SM HZ FEW044 32/24 A2978 RMK AO2 SLP076 T03220239 10333 20300 56016


Page loaded:  11:33 UTC  |   04:33 AM Pacific  |   05:33 AM Mountain  |   06:33 AM Central  |   07:33 AM Eastern

 

ADVISORIES

FORECASTS

FORECASTS

OBSERVATIONS

USER TOOLS

ABOUT US